MOL Partner — 3EBZ5 — position and weather

sailwx.info

Track history (hours):
 
Tides and Currents Weather Stations Pressure Air Temp Water Temp Dewpoint Dewpoint Depression Visibility Wind Speed Wind Dir Waves Ship Positions

MOL Partner

Last reported at 2015-Jul-31 02:27 UTC. Time now 2015-Aug-01 20:15 UTC.
Position N 22°06' E 114°22'.

Length 293 m; draft 10.2 m.

Type: Ship (hazmat cat D). MMSI: 371303000.

Date/timePositionNaut miles runAvg speedWind from/ knotsBaromVisibWave heightAir tempDewpointWater temp
2015-Jul-31 02:27N 22°06' E 114°22'1515.1
2015-Jul-31 01:29N 22°14' E 114°08'10 9.3
2015-Jul-31 00:26N 22°21' E 114°00'8 8.8
2015-Jul-30 23:33N 22°25' E 113°53'5 1.4
2015-Jul-30 20:24N 22°29' E 113°52'0 0.0
2015-Jul-30 19:30N 22°29' E 113°52'0 0.0
2015-Jul-30 12:18N 22°29' E 113°52'3 4.3
2015-Jul-30 11:33N 22°26' E 113°53'1210.0
2015-Jul-30 10:19N 22°20' E 114°05'14 7.6
2015-Jul-30 08:30N 22°09' E 114°14'8 8.4
2015-Jul-30 07:33N 22°10' E 114°22'14 4.5
2015-Jul-30 04:26N 22°18' E 114°35'1 0.6
2015-Jul-30 03:20N 22°18' E 114°34'1 0.7
2015-Jul-30 02:20N 22°17' E 114°34'7 3.9
2015-Jul-30 00:33N 22°12' E 114°29'1110.6
2015-Jul-29 23:33N 22°07' E 114°19'1212.0
2015-Jul-29 22:33N 22°14' E 114°08'6 6.3
2015-Jul-29 21:33N 22°20' E 114°08'0 0.0
2015-Jul-29 20:33N 22°20' E 114°08'0 0.0
2015-Jul-29 19:33N 22°20' E 114°08'0 0.0
2015-Jul-29 18:33N 22°20' E 114°08'0 0.0
2015-Jul-29 17:33N 22°20' E 114°08'0 0.0
2015-Jul-29 16:33N 22°20' E 114°08'0 0.0
2015-Jul-29 15:33N 22°20' E 114°08'0 0.0
2015-Jul-29 14:33N 22°20' E 114°08'0 0.0
2015-Jul-29 13:24N 22°20' E 114°08'0 0.0
2015-Jul-29 12:33N 22°20' E 114°08'0 0.0
2015-Jul-29 11:27N 22°20' E 114°08'0 0.0
2015-Jul-29 10:33N 22°20' E 114°08'0 0.0
2015-Jul-29 09:33N 22°20' E 114°08'0 0.0
2015-Jul-29 08:33N 22°20' E 114°08'0 0.0
2015-Jul-29 07:33N 22°20' E 114°08'0 0.0
2015-Jul-29 06:27N 22°20' E 114°08'0 0.0
2015-Jul-29 05:33N 22°20' E 114°08'0 0.0
2015-Jul-29 04:30N 22°20' E 114°08'3 3.6
2015-Jul-29 03:33N 22°17' E 114°06'1110.2
2015-Jul-29 02:31N 22°09' E 114°14'1210.9
2015-Jul-29 01:26N 22°12' E 114°26'23 1.0
2015-Jul-28 03:08N 22°34' E 114°17'1 1.6
2015-Jul-28 02:15N 22°34' E 114°16'0 0.0
2015-Jul-28 01:33N 22°34' E 114°16'0 0.0
2015-Jul-28 00:33N 22°34' E 114°16'0 0.0
2015-Jul-27 23:33N 22°34' E 114°16'0 0.0
2015-Jul-27 22:33N 22°34' E 114°16'0 0.0
2015-Jul-27 21:33N 22°34' E 114°16'0 0.0
2015-Jul-27 20:33N 22°34' E 114°16'0 0.0
2015-Jul-27 19:33N 22°34' E 114°16'16 5.2
2015-Jul-27 16:31N 22°25' E 114°29'5 0.3
2015-Jul-26 21:11N 22°24' E 114°35'0 0.0
2015-Jul-26 19:23N 22°24' E 114°35'2 0.1
2015-Jul-26 03:32N 22°23' E 114°37'23012.1
2015-Jul-25 08:29N 23°53' E 118°27'1211.4
2015-Jul-25 07:27N 24°01' E 118°37'2211.5
2015-Jul-25 05:32N 24°15' E 118°55'2411.9
2015-Jul-25 03:31N 24°31' E 119°15'7114.3
2015-Jul-24 22:32N 25°22' E 120°09'36910.8
2015-Jul-23 12:29N 31°06' E 122°43'1314.1
2015-Jul-23 11:33N 31°06' E 122°28'1313.1
2015-Jul-23 10:33N 31°09' E 122°13'1414.4
2015-Jul-23 09:33N 31°15' E 121°58'1414.0
2015-Jul-23 08:34N 31°19' E 121°42'8 8.0
2015-Jul-23 07:34N 31°23' E 121°34'10 9.7
2015-Jul-23 06:34N 31°30' E 121°26'8 7.8
2015-Jul-23 05:34N 31°30' E 121°35'5 5.0
2015-Jul-23 04:33N 31°33' E 121°31'2 2.1
2015-Jul-23 03:32N 31°34' E 121°29'0 0.0
2015-Jul-23 02:32N 31°34' E 121°29'1 1.1
2015-Jul-23 01:34N 31°34' E 121°30'1 0.8
2015-Jul-23 00:33N 31°34' E 121°29'2 1.7
2015-Jul-22 23:33N 31°35' E 121°27'0 0.2
2015-Jul-22 22:32N 31°35' E 121°28'0 0.0
2015-Jul-22 21:32N 31°35' E 121°28'0 0.0
2015-Jul-22 20:32N 31°35' E 121°28'0 0.0
2015-Jul-22 19:32N 31°35' E 121°28'0 0.0
2015-Jul-22 18:32N 31°35' E 121°28'0 0.0
2015-Jul-22 17:32N 31°35' E 121°28'0 0.0
2015-Jul-22 16:32N 31°35' E 121°28'0 0.0
2015-Jul-22 15:32N 31°35' E 121°28'0 0.0
2015-Jul-22 14:29N 31°35' E 121°28'0 0.0
2015-Jul-22 13:32N 31°35' E 121°28'0 0.0
2015-Jul-22 12:32N 31°35' E 121°28'0 0.0
2015-Jul-22 11:32N 31°35' E 121°28'0 0.0
2015-Jul-22 10:32N 31°35' E 121°28'0 0.0
2015-Jul-22 09:32N 31°35' E 121°28'0 0.0
2015-Jul-22 06:26N 31°35' E 121°28'0 0.0
2015-Jul-22 05:32N 31°35' E 121°28'0 0.0
2015-Jul-22 04:32N 31°35' E 121°28'0 0.0
2015-Jul-22 03:32N 31°35' E 121°28'0 0.0
2015-Jul-22 02:32N 31°35' E 121°28'0 0.0
2015-Jul-22 01:32N 31°35' E 121°28'0 0.0
2015-Jul-22 00:29N 31°35' E 121°28'0 0.0
2015-Jul-21 23:32N 31°35' E 121°28'0 0.0
2015-Jul-21 22:32N 31°35' E 121°28'0 0.0
2015-Jul-21 21:32N 31°35' E 121°28'0 0.0
2015-Jul-21 20:32N 31°35' E 121°28'0 0.0
2015-Jul-21 19:32N 31°35' E 121°28'0 0.0
2015-Jul-21 18:32N 31°35' E 121°28'0 0.0
2015-Jul-21 17:32N 31°35' E 121°28'0 0.0
2015-Jul-21 16:32N 31°35' E 121°28'0 0.0
2015-Jul-21 15:32N 31°35' E 121°28'0 0.0
2015-Jul-21 14:32N 31°35' E 121°28'0 0.0
2015-Jul-21 13:32N 31°35' E 121°28'0 0.0
2015-Jul-21 12:32N 31°35' E 121°28'0 0.0
2015-Jul-21 11:29N 31°35' E 121°28'0 0.0
2015-Jul-21 10:32N 31°35' E 121°28'0 0.0
2015-Jul-21 09:32N 31°35' E 121°28'0 0.0
2015-Jul-21 08:32N 31°35' E 121°28'0 0.0
2015-Jul-21 07:32N 31°35' E 121°28'0 0.0
2015-Jul-21 06:32N 31°35' E 121°28'0 0.0
2015-Jul-21 05:29N 31°35' E 121°28'0 0.0
2015-Jul-21 04:29N 31°35' E 121°28'0 0.0
2015-Jul-21 03:29N 31°35' E 121°28'0 0.0
2015-Jul-21 02:32N 31°35' E 121°28'  
Track history (hours):
 
Tides and Currents Weather Stations Pressure Air Temp Water Temp Dewpoint Dewpoint Depression Visibility Wind Speed Wind Dir Waves Ship Positions

MOL Partner

Last reported at 2015-Jul-31 02:27 UTC. Time now 2015-Aug-01 20:15 UTC.
Position N 22°06' E 114°22'.

Length 293 m; draft 10.2 m.

Type: Ship (hazmat cat D). MMSI: 371303000.

Date/timePositionNaut miles runAvg speedWind from/ knotsBaromVisibWave heightAir tempDewpointWater temp
2015-Jul-31 02:27N 22°06' E 114°22'1515.1
2015-Jul-31 01:29N 22°14' E 114°08'10 9.3
2015-Jul-31 00:26N 22°21' E 114°00'8 8.8
2015-Jul-30 23:33N 22°25' E 113°53'5 1.4
2015-Jul-30 20:24N 22°29' E 113°52'0 0.0
2015-Jul-30 19:30N 22°29' E 113°52'0 0.0
2015-Jul-30 12:18N 22°29' E 113°52'3 4.3
2015-Jul-30 11:33N 22°26' E 113°53'1210.0
2015-Jul-30 10:19N 22°20' E 114°05'14 7.6
2015-Jul-30 08:30N 22°09' E 114°14'8 8.4
2015-Jul-30 07:33N 22°10' E 114°22'14 4.5
2015-Jul-30 04:26N 22°18' E 114°35'1 0.6
2015-Jul-30 03:20N 22°18' E 114°34'1 0.7
2015-Jul-30 02:20N 22°17' E 114°34'7 3.9
2015-Jul-30 00:33N 22°12' E 114°29'1110.6
2015-Jul-29 23:33N 22°07' E 114°19'1212.0
2015-Jul-29 22:33N 22°14' E 114°08'6 6.3
2015-Jul-29 21:33N 22°20' E 114°08'0 0.0
2015-Jul-29 20:33N 22°20' E 114°08'0 0.0
2015-Jul-29 19:33N 22°20' E 114°08'0 0.0
2015-Jul-29 18:33N 22°20' E 114°08'0 0.0
2015-Jul-29 17:33N 22°20' E 114°08'0 0.0
2015-Jul-29 16:33N 22°20' E 114°08'0 0.0
2015-Jul-29 15:33N 22°20' E 114°08'0 0.0
2015-Jul-29 14:33N 22°20' E 114°08'0 0.0
2015-Jul-29 13:24N 22°20' E 114°08'0 0.0
2015-Jul-29 12:33N 22°20' E 114°08'0 0.0
2015-Jul-29 11:27N 22°20' E 114°08'0 0.0
2015-Jul-29 10:33N 22°20' E 114°08'0 0.0
2015-Jul-29 09:33N 22°20' E 114°08'0 0.0
2015-Jul-29 08:33N 22°20' E 114°08'0 0.0
2015-Jul-29 07:33N 22°20' E 114°08'0 0.0
2015-Jul-29 06:27N 22°20' E 114°08'0 0.0
2015-Jul-29 05:33N 22°20' E 114°08'0 0.0
2015-Jul-29 04:30N 22°20' E 114°08'3 3.6
2015-Jul-29 03:33N 22°17' E 114°06'1110.2
2015-Jul-29 02:31N 22°09' E 114°14'1210.9
2015-Jul-29 01:26N 22°12' E 114°26'23 1.0
2015-Jul-28 03:08N 22°34' E 114°17'1 1.6
2015-Jul-28 02:15N 22°34' E 114°16'0 0.0
2015-Jul-28 01:33N 22°34' E 114°16'0 0.0
2015-Jul-28 00:33N 22°34' E 114°16'0 0.0
2015-Jul-27 23:33N 22°34' E 114°16'0 0.0
2015-Jul-27 22:33N 22°34' E 114°16'0 0.0
2015-Jul-27 21:33N 22°34' E 114°16'0 0.0
2015-Jul-27 20:33N 22°34' E 114°16'0 0.0
2015-Jul-27 19:33N 22°34' E 114°16'16 5.2
2015-Jul-27 16:31N 22°25' E 114°29'5 0.3
2015-Jul-26 21:11N 22°24' E 114°35'0 0.0
2015-Jul-26 19:23N 22°24' E 114°35'2 0.1
2015-Jul-26 03:32N 22°23' E 114°37'23012.1
2015-Jul-25 08:29N 23°53' E 118°27'1211.4
2015-Jul-25 07:27N 24°01' E 118°37'2211.5
2015-Jul-25 05:32N 24°15' E 118°55'2411.9
2015-Jul-25 03:31N 24°31' E 119°15'7114.3
2015-Jul-24 22:32N 25°22' E 120°09'36910.8
2015-Jul-23 12:29N 31°06' E 122°43'1314.1
2015-Jul-23 11:33N 31°06' E 122°28'1313.1
2015-Jul-23 10:33N 31°09' E 122°13'1414.4
2015-Jul-23 09:33N 31°15' E 121°58'1414.0
2015-Jul-23 08:34N 31°19' E 121°42'8 8.0
2015-Jul-23 07:34N 31°23' E 121°34'10 9.7
2015-Jul-23 06:34N 31°30' E 121°26'8 7.8
2015-Jul-23 05:34N 31°30' E 121°35'5 5.0
2015-Jul-23 04:33N 31°33' E 121°31'2 2.1
2015-Jul-23 03:32N 31°34' E 121°29'0 0.0
2015-Jul-23 02:32N 31°34' E 121°29'1 1.1
2015-Jul-23 01:34N 31°34' E 121°30'1 0.8
2015-Jul-23 00:33N 31°34' E 121°29'2 1.7
2015-Jul-22 23:33N 31°35' E 121°27'0 0.2
2015-Jul-22 22:32N 31°35' E 121°28'0 0.0
2015-Jul-22 21:32N 31°35' E 121°28'0 0.0
2015-Jul-22 20:32N 31°35' E 121°28'0 0.0
2015-Jul-22 19:32N 31°35' E 121°28'0 0.0
2015-Jul-22 18:32N 31°35' E 121°28'0 0.0
2015-Jul-22 17:32N 31°35' E 121°28'0 0.0
2015-Jul-22 16:32N 31°35' E 121°28'0 0.0
2015-Jul-22 15:32N 31°35' E 121°28'0 0.0
2015-Jul-22 14:29N 31°35' E 121°28'0 0.0
2015-Jul-22 13:32N 31°35' E 121°28'0 0.0
2015-Jul-22 12:32N 31°35' E 121°28'0 0.0
2015-Jul-22 11:32N 31°35' E 121°28'0 0.0
2015-Jul-22 10:32N 31°35' E 121°28'0 0.0
2015-Jul-22 09:32N 31°35' E 121°28'0 0.0
2015-Jul-22 06:26N 31°35' E 121°28'0 0.0
2015-Jul-22 05:32N 31°35' E 121°28'0 0.0
2015-Jul-22 04:32N 31°35' E 121°28'0 0.0
2015-Jul-22 03:32N 31°35' E 121°28'0 0.0
2015-Jul-22 02:32N 31°35' E 121°28'0 0.0
2015-Jul-22 01:32N 31°35' E 121°28'0 0.0
2015-Jul-22 00:29N 31°35' E 121°28'0 0.0
2015-Jul-21 23:32N 31°35' E 121°28'0 0.0
2015-Jul-21 22:32N 31°35' E 121°28'0 0.0
2015-Jul-21 21:32N 31°35' E 121°28'0 0.0
2015-Jul-21 20:32N 31°35' E 121°28'0 0.0
2015-Jul-21 19:32N 31°35' E 121°28'0 0.0
2015-Jul-21 18:32N 31°35' E 121°28'0 0.0
2015-Jul-21 17:32N 31°35' E 121°28'0 0.0
2015-Jul-21 16:32N 31°35' E 121°28'0 0.0
2015-Jul-21 15:32N 31°35' E 121°28'0 0.0
2015-Jul-21 14:32N 31°35' E 121°28'0 0.0
2015-Jul-21 13:32N 31°35' E 121°28'0 0.0
2015-Jul-21 12:32N 31°35' E 121°28'0 0.0
2015-Jul-21 11:29N 31°35' E 121°28'0 0.0
2015-Jul-21 10:32N 31°35' E 121°28'0 0.0
2015-Jul-21 09:32N 31°35' E 121°28'0 0.0
2015-Jul-21 08:32N 31°35' E 121°28'0 0.0
2015-Jul-21 07:32N 31°35' E 121°28'0 0.0
2015-Jul-21 06:32N 31°35' E 121°28'0 0.0
2015-Jul-21 05:29N 31°35' E 121°28'0 0.0
2015-Jul-21 04:29N 31°35' E 121°28'0 0.0
2015-Jul-21 03:29N 31°35' E 121°28'0 0.0
2015-Jul-21 02:32N 31°35' E 121°28'  

Dump ship's entire track history